sensor_id;sensor_type;location;lat;lon;timestamp;temperature;humidity
68257;DHT22;55069;51.568;4.656;2023-08-17T00:02:12;18.60;78.69
68257;DHT22;55069;51.568;4.656;2023-08-17T00:04:38;18.50;79.15
68257;DHT22;55069;51.568;4.656;2023-08-17T00:07:05;18.50;79.38
68257;DHT22;55069;51.568;4.656;2023-08-17T00:09:30;18.41;79.89
68257;DHT22;55069;51.568;4.656;2023-08-17T00:11:56;18.37;80.06
68257;DHT22;55069;51.568;4.656;2023-08-17T00:14:21;18.33;79.96
68257;DHT22;55069;51.568;4.656;2023-08-17T00:16:49;18.31;80.15
68257;DHT22;55069;51.568;4.656;2023-08-17T00:19:14;18.29;79.87
68257;DHT22;55069;51.568;4.656;2023-08-17T00:21:40;18.31;79.64
68257;DHT22;55069;51.568;4.656;2023-08-17T00:24:06;18.29;79.69
68257;DHT22;55069;51.568;4.656;2023-08-17T00:26:31;18.34;79.55
68257;DHT22;55069;51.568;4.656;2023-08-17T00:28:57;18.33;79.83
68257;DHT22;55069;51.568;4.656;2023-08-17T00:31:22;18.33;79.47
68257;DHT22;55069;51.568;4.656;2023-08-17T00:33:48;18.41;79.53
68257;DHT22;55069;51.568;4.656;2023-08-17T00:36:13;18.45;79.20
68257;DHT22;55069;51.568;4.656;2023-08-17T00:38:39;18.41;79.35
68257;DHT22;55069;51.568;4.656;2023-08-17T00:41:04;18.43;79.47
68257;DHT22;55069;51.568;4.656;2023-08-17T00:43:30;18.41;79.40
68257;DHT22;55069;51.568;4.656;2023-08-17T00:45:55;18.43;78.81
68257;DHT22;55069;51.568;4.656;2023-08-17T00:48:21;18.43;79.01
68257;DHT22;55069;51.568;4.656;2023-08-17T00:50:48;18.45;78.84
68257;DHT22;55069;51.568;4.656;2023-08-17T00:53:15;18.47;78.48
68257;DHT22;55069;51.568;4.656;2023-08-17T00:55:42;18.44;78.92
68257;DHT22;55069;51.568;4.656;2023-08-17T00:58:08;18.44;79.07
68257;DHT22;55069;51.568;4.656;2023-08-17T01:00:33;18.36;79.84
68257;DHT22;55069;51.568;4.656;2023-08-17T01:02:59;18.29;79.95
68257;DHT22;55069;51.568;4.656;2023-08-17T01:05:25;18.27;80.15
68257;DHT22;55069;51.568;4.656;2023-08-17T01:07:50;18.23;80.48
68257;DHT22;55069;51.568;4.656;2023-08-17T01:10:16;18.23;80.44
68257;DHT22;55069;51.568;4.656;2023-08-17T01:12:57;18.17;80.56
68257;DHT22;55069;51.568;4.656;2023-08-17T01:15:36;18.18;80.21
68257;DHT22;55069;51.568;4.656;2023-08-17T01:18:32;18.09;80.36
68257;DHT22;55069;51.568;4.656;2023-08-17T01:21:01;18.09;80.62
68257;DHT22;55069;51.568;4.656;2023-08-17T01:23:28;18.09;80.55
68257;DHT22;55069;51.568;4.656;2023-08-17T01:25:53;18.12;80.54
68257;DHT22;55069;51.568;4.656;2023-08-17T01:28:19;18.09;80.46
68257;DHT22;55069;51.568;4.656;2023-08-17T01:30:58;18.12;80.34
68257;DHT22;55069;51.568;4.656;2023-08-17T01:33:35;18.03;80.16
68257;DHT22;55069;51.568;4.656;2023-08-17T01:36:33;18.05;80.07
68257;DHT22;55069;51.568;4.656;2023-08-17T01:39:01;18.02;79.89
68257;DHT22;55069;51.568;4.656;2023-08-17T01:41:29;18.06;80.01
68257;DHT22;55069;51.568;4.656;2023-08-17T01:43:56;18.02;79.56
68257;DHT22;55069;51.568;4.656;2023-08-17T01:46:27;18.05;79.66
68257;DHT22;55069;51.568;4.656;2023-08-17T01:48:53;17.97;79.41
68257;DHT22;55069;51.568;4.656;2023-08-17T01:51:20;17.90;79.67
68257;DHT22;55069;51.568;4.656;2023-08-17T01:53:46;17.96;79.52
68257;DHT22;55069;51.568;4.656;2023-08-17T01:56:11;17.90;79.25
68257;DHT22;55069;51.568;4.656;2023-08-17T01:58:37;17.93;78.98
68257;DHT22;55069;51.568;4.656;2023-08-17T02:01:04;17.93;79.24
68257;DHT22;55069;51.568;4.656;2023-08-17T02:03:30;17.92;79.42
68257;DHT22;55069;51.568;4.656;2023-08-17T02:05:56;17.86;79.64
68257;DHT22;55069;51.568;4.656;2023-08-17T02:08:22;17.89;79.56
68257;DHT22;55069;51.568;4.656;2023-08-17T02:10:47;17.87;79.59
68257;DHT22;55069;51.568;4.656;2023-08-17T02:13:14;17.82;79.63
68257;DHT22;55069;51.568;4.656;2023-08-17T02:15:40;17.82;79.48
68257;DHT22;55069;51.568;4.656;2023-08-17T02:18:05;17.89;79.18
68257;DHT22;55069;51.568;4.656;2023-08-17T02:20:31;17.83;79.58
68257;DHT22;55069;51.568;4.656;2023-08-17T02:22:57;17.86;79.22
68257;DHT22;55069;51.568;4.656;2023-08-17T02:25:22;17.79;79.46
68257;DHT22;55069;51.568;4.656;2023-08-17T02:27:50;17.75;79.59
68257;DHT22;55069;51.568;4.656;2023-08-17T02:30:16;17.71;79.71
68257;DHT22;55069;51.568;4.656;2023-08-17T02:32:41;17.74;79.94
68257;DHT22;55069;51.568;4.656;2023-08-17T02:35:07;17.75;79.78
68257;DHT22;55069;51.568;4.656;2023-08-17T02:37:33;17.78;79.39
68257;DHT22;55069;51.568;4.656;2023-08-17T02:39:59;17.82;79.08
68257;DHT22;55069;51.568;4.656;2023-08-17T02:42:24;17.86;78.94
68257;DHT22;55069;51.568;4.656;2023-08-17T02:44:50;17.85;78.90
68257;DHT22;55069;51.568;4.656;2023-08-17T02:47:15;17.83;78.71
68257;DHT22;55069;51.568;4.656;2023-08-17T02:49:41;17.81;78.81
68257;DHT22;55069;51.568;4.656;2023-08-17T02:52:08;17.90;78.69
68257;DHT22;55069;51.568;4.656;2023-08-17T02:54:34;17.92;78.30
68257;DHT22;55069;51.568;4.656;2023-08-17T02:56:59;17.86;78.17
68257;DHT22;55069;51.568;4.656;2023-08-17T02:59:25;17.87;78.07
68257;DHT22;55069;51.568;4.656;2023-08-17T03:01:51;17.86;77.94
68257;DHT22;55069;51.568;4.656;2023-08-17T03:04:16;17.92;77.81
68257;DHT22;55069;51.568;4.656;2023-08-17T03:06:42;17.85;77.67
68257;DHT22;55069;51.568;4.656;2023-08-17T03:09:07;17.82;77.50
68257;DHT22;55069;51.568;4.656;2023-08-17T03:11:33;17.78;77.56
68257;DHT22;55069;51.568;4.656;2023-08-17T03:13:59;17.79;77.42
68257;DHT22;55069;51.568;4.656;2023-08-17T03:16:29;17.78;77.45
68257;DHT22;55069;51.568;4.656;2023-08-17T03:18:55;17.79;77.52
68257;DHT22;55069;51.568;4.656;2023-08-17T03:21:22;17.66;78.10
68257;DHT22;55069;51.568;4.656;2023-08-17T03:23:48;17.69;77.87
68257;DHT22;55069;51.568;4.656;2023-08-17T03:26:14;17.64;78.12
68257;DHT22;55069;51.568;4.656;2023-08-17T03:28:40;17.61;78.55
68257;DHT22;55069;51.568;4.656;2023-08-17T03:31:06;17.57;78.02
68257;DHT22;55069;51.568;4.656;2023-08-17T03:33:34;17.65;77.56
68257;DHT22;55069;51.568;4.656;2023-08-17T03:36:00;17.58;77.88
68257;DHT22;55069;51.568;4.656;2023-08-17T03:38:26;17.59;77.82
68257;DHT22;55069;51.568;4.656;2023-08-17T03:40:52;17.57;77.45
68257;DHT22;55069;51.568;4.656;2023-08-17T03:43:21;17.57;77.38
68257;DHT22;55069;51.568;4.656;2023-08-17T03:45:47;17.52;77.55
68257;DHT22;55069;51.568;4.656;2023-08-17T03:48:13;17.47;77.64
68257;DHT22;55069;51.568;4.656;2023-08-17T03:50:38;17.47;78.15
68257;DHT22;55069;51.568;4.656;2023-08-17T03:53:04;17.41;78.53
68257;DHT22;55069;51.568;4.656;2023-08-17T03:55:30;17.38;78.79
68257;DHT22;55069;51.568;4.656;2023-08-17T03:57:55;17.38;79.03
68257;DHT22;55069;51.568;4.656;2023-08-17T04:00:21;17.38;79.18
68257;DHT22;55069;51.568;4.656;2023-08-17T04:02:51;17.32;78.98
68257;DHT22;55069;51.568;4.656;2023-08-17T04:05:19;17.30;79.18
68257;DHT22;55069;51.568;4.656;2023-08-17T04:07:44;17.27;79.52
68257;DHT22;55069;51.568;4.656;2023-08-17T04:10:10;17.24;79.75
68257;DHT22;55069;51.568;4.656;2023-08-17T04:12:36;17.16;79.67
68257;DHT22;55069;51.568;4.656;2023-08-17T04:15:01;17.13;79.77
68257;DHT22;55069;51.568;4.656;2023-08-17T04:17:27;17.10;80.07
68257;DHT22;55069;51.568;4.656;2023-08-17T04:19:52;17.13;80.26
68257;DHT22;55069;51.568;4.656;2023-08-17T04:22:18;17.20;79.89
68257;DHT22;55069;51.568;4.656;2023-08-17T04:24:44;17.18;79.94
68257;DHT22;55069;51.568;4.656;2023-08-17T04:27:09;17.18;79.82
68257;DHT22;55069;51.568;4.656;2023-08-17T04:29:37;17.21;79.80
68257;DHT22;55069;51.568;4.656;2023-08-17T04:32:03;17.20;79.91
68257;DHT22;55069;51.568;4.656;2023-08-17T04:34:29;17.18;80.17
68257;DHT22;55069;51.568;4.656;2023-08-17T04:36:55;17.18;80.10
68257;DHT22;55069;51.568;4.656;2023-08-17T04:39:20;17.14;80.22
68257;DHT22;55069;51.568;4.656;2023-08-17T04:41:46;17.10;80.32
68257;DHT22;55069;51.568;4.656;2023-08-17T04:44:17;17.14;80.46
68257;DHT22;55069;51.568;4.656;2023-08-17T04:46:42;17.10;80.46
68257;DHT22;55069;51.568;4.656;2023-08-17T04:49:08;17.09;80.92
68257;DHT22;55069;51.568;4.656;2023-08-17T04:51:33;17.13;81.02
68257;DHT22;55069;51.568;4.656;2023-08-17T04:53:59;17.17;80.86
68257;DHT22;55069;51.568;4.656;2023-08-17T04:56:25;17.07;81.02
68257;DHT22;55069;51.568;4.656;2023-08-17T04:58:51;17.11;80.95
68257;DHT22;55069;51.568;4.656;2023-08-17T05:01:17;17.13;80.87
68257;DHT22;55069;51.568;4.656;2023-08-17T05:03:43;17.13;81.18
68257;DHT22;55069;51.568;4.656;2023-08-17T05:06:09;17.11;81.28
68257;DHT22;55069;51.568;4.656;2023-08-17T05:08:35;17.10;81.26
68257;DHT22;55069;51.568;4.656;2023-08-17T05:11:01;17.16;81.41
68257;DHT22;55069;51.568;4.656;2023-08-17T05:13:26;17.14;81.16
68257;DHT22;55069;51.568;4.656;2023-08-17T05:15:54;17.16;81.36
68257;DHT22;55069;51.568;4.656;2023-08-17T05:18:21;17.18;81.20
68257;DHT22;55069;51.568;4.656;2023-08-17T05:20:47;17.18;81.05
68257;DHT22;55069;51.568;4.656;2023-08-17T05:23:13;17.20;80.90
68257;DHT22;55069;51.568;4.656;2023-08-17T05:25:38;17.31;80.77
68257;DHT22;55069;51.568;4.656;2023-08-17T05:28:04;17.37;80.98
68257;DHT22;55069;51.568;4.656;2023-08-17T05:30:30;17.32;81.06
68257;DHT22;55069;51.568;4.656;2023-08-17T05:32:55;17.37;80.95
68257;DHT22;55069;51.568;4.656;2023-08-17T05:35:21;17.41;80.74
68257;DHT22;55069;51.568;4.656;2023-08-17T05:37:46;17.47;80.45
68257;DHT22;55069;51.568;4.656;2023-08-17T05:40:12;17.49;80.57
68257;DHT22;55069;51.568;4.656;2023-08-17T05:42:38;17.51;80.19
68257;DHT22;55069;51.568;4.656;2023-08-17T05:45:04;17.45;80.52
68257;DHT22;55069;51.568;4.656;2023-08-17T05:47:30;17.52;80.29
68257;DHT22;55069;51.568;4.656;2023-08-17T05:49:55;17.55;79.70
68257;DHT22;55069;51.568;4.656;2023-08-17T05:52:21;17.45;79.94
68257;DHT22;55069;51.568;4.656;2023-08-17T05:54:46;17.47;80.38
68257;DHT22;55069;51.568;4.656;2023-08-17T05:57:12;17.58;79.33
68257;DHT22;55069;51.568;4.656;2023-08-17T05:59:37;17.57;79.43
68257;DHT22;55069;51.568;4.656;2023-08-17T06:02:03;17.66;79.47
68257;DHT22;55069;51.568;4.656;2023-08-17T06:04:28;17.58;79.80
68257;DHT22;55069;51.568;4.656;2023-08-17T06:06:54;17.61;79.42
68257;DHT22;55069;51.568;4.656;2023-08-17T06:09:20;17.66;79.73
68257;DHT22;55069;51.568;4.656;2023-08-17T06:11:46;17.75;79.20
68257;DHT22;55069;51.568;4.656;2023-08-17T06:14:11;17.78;78.80
68257;DHT22;55069;51.568;4.656;2023-08-17T06:16:37;17.81;79.58
68257;DHT22;55069;51.568;4.656;2023-08-17T06:19:03;17.87;79.38
68257;DHT22;55069;51.568;4.656;2023-08-17T06:21:29;17.85;78.95
68257;DHT22;55069;51.568;4.656;2023-08-17T06:23:54;17.81;79.12
68257;DHT22;55069;51.568;4.656;2023-08-17T06:26:20;17.89;78.80
68257;DHT22;55069;51.568;4.656;2023-08-17T06:28:45;17.86;78.96
68257;DHT22;55069;51.568;4.656;2023-08-17T06:31:14;17.87;78.81
68257;DHT22;55069;51.568;4.656;2023-08-17T06:33:40;17.86;79.36
68257;DHT22;55069;51.568;4.656;2023-08-17T06:36:05;17.99;79.73
68257;DHT22;55069;51.568;4.656;2023-08-17T06:38:31;17.96;78.79
68257;DHT22;55069;51.568;4.656;2023-08-17T06:40:56;17.89;79.25
68257;DHT22;55069;51.568;4.656;2023-08-17T06:43:22;17.90;79.31
68257;DHT22;55069;51.568;4.656;2023-08-17T06:45:47;17.86;79.69
68257;DHT22;55069;51.568;4.656;2023-08-17T06:48:13;17.87;79.58
68257;DHT22;55069;51.568;4.656;2023-08-17T06:50:38;17.96;79.65
68257;DHT22;55069;51.568;4.656;2023-08-17T06:53:04;17.93;79.61
68257;DHT22;55069;51.568;4.656;2023-08-17T06:55:30;17.90;79.48
68257;DHT22;55069;51.568;4.656;2023-08-17T06:57:56;18.06;79.88
68257;DHT22;55069;51.568;4.656;2023-08-17T07:00:22;18.18;79.54
68257;DHT22;55069;51.568;4.656;2023-08-17T07:02:48;18.37;78.93
68257;DHT22;55069;51.568;4.656;2023-08-17T07:05:14;18.45;77.92
68257;DHT22;55069;51.568;4.656;2023-08-17T07:07:40;18.60;77.01
68257;DHT22;55069;51.568;4.656;2023-08-17T07:10:06;18.61;77.94
68257;DHT22;55069;51.568;4.656;2023-08-17T07:12:32;18.57;77.42
68257;DHT22;55069;51.568;4.656;2023-08-17T07:14:58;18.61;77.91
68257;DHT22;55069;51.568;4.656;2023-08-17T07:17:23;18.64;77.50
68257;DHT22;55069;51.568;4.656;2023-08-17T07:19:49;18.51;77.51
68257;DHT22;55069;51.568;4.656;2023-08-17T07:22:15;18.58;78.03
68257;DHT22;55069;51.568;4.656;2023-08-17T07:24:42;18.72;77.20
68257;DHT22;55069;51.568;4.656;2023-08-17T07:27:07;18.92;77.70
68257;DHT22;55069;51.568;4.656;2023-08-17T07:29:33;19.10;76.58
68257;DHT22;55069;51.568;4.656;2023-08-17T07:31:59;19.09;76.36
68257;DHT22;55069;51.568;4.656;2023-08-17T07:34:30;19.24;75.73
68257;DHT22;55069;51.568;4.656;2023-08-17T07:36:57;19.24;76.42
68257;DHT22;55069;51.568;4.656;2023-08-17T07:39:23;19.10;76.43
68257;DHT22;55069;51.568;4.656;2023-08-17T07:41:48;19.15;76.05
68257;DHT22;55069;51.568;4.656;2023-08-17T07:44:14;19.06;76.22
68257;DHT22;55069;51.568;4.656;2023-08-17T07:46:40;19.30;76.66
68257;DHT22;55069;51.568;4.656;2023-08-17T07:49:10;19.16;75.88
68257;DHT22;55069;51.568;4.656;2023-08-17T07:51:36;19.15;76.34
68257;DHT22;55069;51.568;4.656;2023-08-17T07:54:02;19.13;75.73
68257;DHT22;55069;51.568;4.656;2023-08-17T07:56:28;19.09;76.30
68257;DHT22;55069;51.568;4.656;2023-08-17T07:58:54;19.13;76.94
68257;DHT22;55069;51.568;4.656;2023-08-17T08:01:20;19.23;75.95
68257;DHT22;55069;51.568;4.656;2023-08-17T08:03:46;19.50;75.87
68257;DHT22;55069;51.568;4.656;2023-08-17T08:06:11;19.75;74.52
68257;DHT22;55069;51.568;4.656;2023-08-17T08:08:38;19.73;74.90
68257;DHT22;55069;51.568;4.656;2023-08-17T08:11:04;20.01;74.37
68257;DHT22;55069;51.568;4.656;2023-08-17T08:13:30;20.16;74.03
68257;DHT22;55069;51.568;4.656;2023-08-17T08:15:56;20.36;72.91
68257;DHT22;55069;51.568;4.656;2023-08-17T08:18:21;20.54;72.65
68257;DHT22;55069;51.568;4.656;2023-08-17T08:20:48;20.44;71.76
68257;DHT22;55069;51.568;4.656;2023-08-17T08:23:14;20.66;72.85
68257;DHT22;55069;51.568;4.656;2023-08-17T08:25:39;20.36;71.85
68257;DHT22;55069;51.568;4.656;2023-08-17T08:28:05;20.28;72.34
68257;DHT22;55069;51.568;4.656;2023-08-17T08:30:31;20.22;73.40
68257;DHT22;55069;51.568;4.656;2023-08-17T08:32:57;20.46;73.55
68257;DHT22;55069;51.568;4.656;2023-08-17T08:35:23;20.73;72.36
68257;DHT22;55069;51.568;4.656;2023-08-17T08:37:50;20.77;72.27
68257;DHT22;55069;51.568;4.656;2023-08-17T08:40:17;21.14;72.14
68257;DHT22;55069;51.568;4.656;2023-08-17T08:42:43;21.09;71.51
68257;DHT22;55069;51.568;4.656;2023-08-17T08:45:09;20.81;72.13
68257;DHT22;55069;51.568;4.656;2023-08-17T08:47:36;20.54;72.77
68257;DHT22;55069;51.568;4.656;2023-08-17T08:50:04;20.56;72.82
68257;DHT22;55069;51.568;4.656;2023-08-17T08:52:36;20.56;72.29
68257;DHT22;55069;51.568;4.656;2023-08-17T08:57:35;21.00;71.63
68257;DHT22;55069;51.568;4.656;2023-08-17T09:00:02;21.18;71.62
68257;DHT22;55069;51.568;4.656;2023-08-17T09:02:29;21.39;70.22
68257;DHT22;55069;51.568;4.656;2023-08-17T09:04:55;21.52;71.06
68257;DHT22;55069;51.568;4.656;2023-08-17T09:07:22;21.80;70.07
68257;DHT22;55069;51.568;4.656;2023-08-17T09:09:47;22.03;69.66
68257;DHT22;55069;51.568;4.656;2023-08-17T09:12:13;21.77;69.78
68257;DHT22;55069;51.568;4.656;2023-08-17T09:14:39;21.45;69.41
68257;DHT22;55069;51.568;4.656;2023-08-17T09:17:06;21.77;70.83
68257;DHT22;55069;51.568;4.656;2023-08-17T09:19:32;22.13;69.93
68257;DHT22;55069;51.568;4.656;2023-08-17T09:21:59;22.41;68.76
68257;DHT22;55069;51.568;4.656;2023-08-17T09:24:36;22.52;66.97
68257;DHT22;55069;51.568;4.656;2023-08-17T09:27:03;22.35;68.73
68257;DHT22;55069;51.568;4.656;2023-08-17T09:29:29;22.18;69.70
68257;DHT22;55069;51.568;4.656;2023-08-17T09:32:07;22.20;68.41
68257;DHT22;55069;51.568;4.656;2023-08-17T09:34:32;22.08;68.80
68257;DHT22;55069;51.568;4.656;2023-08-17T09:37:04;22.25;69.62
68257;DHT22;55069;51.568;4.656;2023-08-17T09:39:31;22.21;69.50
68257;DHT22;55069;51.568;4.656;2023-08-17T09:41:56;22.08;68.71
68257;DHT22;55069;51.568;4.656;2023-08-17T09:44:22;22.20;69.43
68257;DHT22;55069;51.568;4.656;2023-08-17T09:46:48;22.41;68.88
68257;DHT22;55069;51.568;4.656;2023-08-17T09:49:13;22.72;67.66
68257;DHT22;55069;51.568;4.656;2023-08-17T09:51:42;22.49;68.12
68257;DHT22;55069;51.568;4.656;2023-08-17T09:54:20;22.69;68.58
68257;DHT22;55069;51.568;4.656;2023-08-17T09:56:46;22.83;67.92
68257;DHT22;55069;51.568;4.656;2023-08-17T09:59:12;22.79;67.71
68257;DHT22;55069;51.568;4.656;2023-08-17T10:01:38;22.75;67.93
68257;DHT22;55069;51.568;4.656;2023-08-17T10:04:04;22.65;69.02
68257;DHT22;55069;51.568;4.656;2023-08-17T10:06:31;22.80;68.13
68257;DHT22;55069;51.568;4.656;2023-08-17T10:08:58;22.85;68.18
68257;DHT22;55069;51.568;4.656;2023-08-17T10:11:25;22.89;68.03
68257;DHT22;55069;51.568;4.656;2023-08-17T10:13:57;23.04;67.68
68257;DHT22;55069;51.568;4.656;2023-08-17T10:16:35;22.48;68.75
68257;DHT22;55069;51.568;4.656;2023-08-17T10:19:25;22.42;68.51
68257;DHT22;55069;51.568;4.656;2023-08-17T10:21:50;22.04;69.74
68257;DHT22;55069;51.568;4.656;2023-08-17T10:24:19;21.63;70.78
68257;DHT22;55069;51.568;4.656;2023-08-17T10:26:45;21.45;71.43
68257;DHT22;55069;51.568;4.656;2023-08-17T10:29:11;21.82;71.67
68257;DHT22;55069;51.568;4.656;2023-08-17T10:31:38;21.92;70.92
68257;DHT22;55069;51.568;4.656;2023-08-17T10:34:04;21.93;70.70
68257;DHT22;55069;51.568;4.656;2023-08-17T10:36:31;21.72;71.35
68257;DHT22;55069;51.568;4.656;2023-08-17T10:39:25;21.56;71.37
68257;DHT22;55069;51.568;4.656;2023-08-17T10:41:52;21.66;71.44
68257;DHT22;55069;51.568;4.656;2023-08-17T10:44:46;21.89;71.35
68257;DHT22;55069;51.568;4.656;2023-08-17T10:47:31;21.55;71.17
68257;DHT22;55069;51.568;4.656;2023-08-17T10:52:34;22.34;69.92
68257;DHT22;55069;51.568;4.656;2023-08-17T10:55:08;22.20;69.36
68257;DHT22;55069;51.568;4.656;2023-08-17T10:57:43;22.03;70.17
68257;DHT22;55069;51.568;4.656;2023-08-17T11:02:54;21.83;71.21
68257;DHT22;55069;51.568;4.656;2023-08-17T11:08:06;21.62;71.01
68257;DHT22;55069;51.568;4.656;2023-08-17T11:10:31;21.38;71.93
68257;DHT22;55069;51.568;4.656;2023-08-17T11:12:57;21.55;71.86
68257;DHT22;55069;51.568;4.656;2023-08-17T11:15:42;21.67;71.89
68257;DHT22;55069;51.568;4.656;2023-08-17T11:18:10;21.73;71.71
68257;DHT22;55069;51.568;4.656;2023-08-17T11:20:37;21.62;71.60
68257;DHT22;55069;51.568;4.656;2023-08-17T11:23:04;21.45;71.85
68257;DHT22;55069;51.568;4.656;2023-08-17T11:25:31;21.25;72.46
68257;DHT22;55069;51.568;4.656;2023-08-17T11:27:57;21.41;72.77
68257;DHT22;55069;51.568;4.656;2023-08-17T11:30:23;21.32;72.75
68257;DHT22;55069;51.568;4.656;2023-08-17T11:32:50;21.41;72.17
68257;DHT22;55069;51.568;4.656;2023-08-17T11:35:16;21.56;72.05
68257;DHT22;55069;51.568;4.656;2023-08-17T11:37:42;21.57;71.99
68257;DHT22;55069;51.568;4.656;2023-08-17T11:40:13;21.76;71.12
68257;DHT22;55069;51.568;4.656;2023-08-17T11:42:39;21.65;71.41
68257;DHT22;55069;51.568;4.656;2023-08-17T11:45:06;21.55;71.64
68257;DHT22;55069;51.568;4.656;2023-08-17T11:47:38;21.55;72.00
68257;DHT22;55069;51.568;4.656;2023-08-17T11:50:05;21.36;72.32
68257;DHT22;55069;51.568;4.656;2023-08-17T11:52:32;21.34;72.80
68257;DHT22;55069;51.568;4.656;2023-08-17T11:55:05;21.25;72.76
68257;DHT22;55069;51.568;4.656;2023-08-17T11:57:32;21.34;72.97
68257;DHT22;55069;51.568;4.656;2023-08-17T11:59:58;21.53;72.78
68257;DHT22;55069;51.568;4.656;2023-08-17T12:02:26;21.42;72.41
68257;DHT22;55069;51.568;4.656;2023-08-17T12:04:53;21.59;72.90
68257;DHT22;55069;51.568;4.656;2023-08-17T12:07:19;21.50;73.22
68257;DHT22;55069;51.568;4.656;2023-08-17T12:09:45;21.77;72.39
68257;DHT22;55069;51.568;4.656;2023-08-17T12:12:12;22.17;72.31
68257;DHT22;55069;51.568;4.656;2023-08-17T12:14:41;22.08;71.40
68257;DHT22;55069;51.568;4.656;2023-08-17T12:17:07;22.00;71.73
68257;DHT22;55069;51.568;4.656;2023-08-17T12:19:32;21.93;71.32
68257;DHT22;55069;51.568;4.656;2023-08-17T12:21:58;21.76;71.98
68257;DHT22;55069;51.568;4.656;2023-08-17T12:24:24;21.70;72.28
68257;DHT22;55069;51.568;4.656;2023-08-17T12:26:49;21.79;72.40
68257;DHT22;55069;51.568;4.656;2023-08-17T12:29:15;21.76;71.72
68257;DHT22;55069;51.568;4.656;2023-08-17T12:31:41;21.77;71.92
68257;DHT22;55069;51.568;4.656;2023-08-17T12:34:06;21.96;71.75
68257;DHT22;55069;51.568;4.656;2023-08-17T12:36:32;21.89;72.53
68257;DHT22;55069;51.568;4.656;2023-08-17T12:38:58;21.92;71.88
68257;DHT22;55069;51.568;4.656;2023-08-17T12:41:24;21.96;72.32
68257;DHT22;55069;51.568;4.656;2023-08-17T12:43:49;21.94;72.05
68257;DHT22;55069;51.568;4.656;2023-08-17T12:46:15;21.84;71.88
68257;DHT22;55069;51.568;4.656;2023-08-17T12:48:41;21.80;72.15
68257;DHT22;55069;51.568;4.656;2023-08-17T12:51:06;21.63;72.93
68257;DHT22;55069;51.568;4.656;2023-08-17T12:53:32;21.63;73.78
68257;DHT22;55069;51.568;4.656;2023-08-17T12:55:57;21.55;73.48
68257;DHT22;55069;51.568;4.656;2023-08-17T12:58:23;21.53;73.25
68257;DHT22;55069;51.568;4.656;2023-08-17T13:00:49;21.63;73.13
68257;DHT22;55069;51.568;4.656;2023-08-17T13:03:18;21.75;73.32
68257;DHT22;55069;51.568;4.656;2023-08-17T13:05:44;21.73;72.47
68257;DHT22;55069;51.568;4.656;2023-08-17T13:08:10;21.83;72.69
68257;DHT22;55069;51.568;4.656;2023-08-17T13:10:36;21.94;72.64
68257;DHT22;55069;51.568;4.656;2023-08-17T13:13:02;22.07;72.65
68257;DHT22;55069;51.568;4.656;2023-08-17T13:15:28;22.08;72.51
68257;DHT22;55069;51.568;4.656;2023-08-17T13:17:54;22.15;71.64
68257;DHT22;55069;51.568;4.656;2023-08-17T13:20:20;22.20;72.36
68257;DHT22;55069;51.568;4.656;2023-08-17T13:22:46;22.27;72.07
68257;DHT22;55069;51.568;4.656;2023-08-17T13:25:12;22.37;71.86
68257;DHT22;55069;51.568;4.656;2023-08-17T13:27:37;22.32;71.70
68257;DHT22;55069;51.568;4.656;2023-08-17T13:30:03;22.15;72.32
68257;DHT22;55069;51.568;4.656;2023-08-17T13:32:29;22.15;72.50
68257;DHT22;55069;51.568;4.656;2023-08-17T13:34:55;22.15;72.46
68257;DHT22;55069;51.568;4.656;2023-08-17T13:37:21;22.18;72.40
68257;DHT22;55069;51.568;4.656;2023-08-17T13:39:47;22.20;71.88
68257;DHT22;55069;51.568;4.656;2023-08-17T13:42:12;21.93;72.47
68257;DHT22;55069;51.568;4.656;2023-08-17T13:44:38;21.79;73.35
68257;DHT22;55069;51.568;4.656;2023-08-17T13:47:04;21.90;72.97
68257;DHT22;55069;51.568;4.656;2023-08-17T13:49:29;21.98;73.24
68257;DHT22;55069;51.568;4.656;2023-08-17T13:51:55;21.97;72.57
68257;DHT22;55069;51.568;4.656;2023-08-17T13:54:24;22.10;72.61
68257;DHT22;55069;51.568;4.656;2023-08-17T13:56:51;22.21;72.51
68257;DHT22;55069;51.568;4.656;2023-08-17T13:59:17;22.24;72.30
68257;DHT22;55069;51.568;4.656;2023-08-17T14:01:42;22.21;72.04
68257;DHT22;55069;51.568;4.656;2023-08-17T14:04:08;22.35;71.64
68257;DHT22;55069;51.568;4.656;2023-08-17T14:06:37;22.58;71.82
68257;DHT22;55069;51.568;4.656;2023-08-17T14:09:03;22.68;71.54
68257;DHT22;55069;51.568;4.656;2023-08-17T14:11:29;22.79;71.78
68257;DHT22;55069;51.568;4.656;2023-08-17T14:13:54;22.80;71.70
68257;DHT22;55069;51.568;4.656;2023-08-17T14:16:20;22.92;71.05
68257;DHT22;55069;51.568;4.656;2023-08-17T14:18:46;22.86;70.79
68257;DHT22;55069;51.568;4.656;2023-08-17T14:21:11;22.68;71.71
68257;DHT22;55069;51.568;4.656;2023-08-17T14:23:38;22.82;71.46
68257;DHT22;55069;51.568;4.656;2023-08-17T14:26:03;22.58;71.38
68257;DHT22;55069;51.568;4.656;2023-08-17T14:28:29;22.51;71.64
68257;DHT22;55069;51.568;4.656;2023-08-17T14:30:55;22.42;72.38
68257;DHT22;55069;51.568;4.656;2023-08-17T14:33:20;22.49;72.05
68257;DHT22;55069;51.568;4.656;2023-08-17T14:35:46;22.27;72.89
68257;DHT22;55069;51.568;4.656;2023-08-17T14:38:12;22.21;72.45
68257;DHT22;55069;51.568;4.656;2023-08-17T14:40:43;22.24;73.13
68257;DHT22;55069;51.568;4.656;2023-08-17T14:43:10;22.28;72.79
68257;DHT22;55069;51.568;4.656;2023-08-17T14:45:37;22.42;72.37
68257;DHT22;55069;51.568;4.656;2023-08-17T14:48:04;22.37;72.35
68257;DHT22;55069;51.568;4.656;2023-08-17T14:50:29;22.47;71.98
68257;DHT22;55069;51.568;4.656;2023-08-17T14:52:55;22.25;72.80
68257;DHT22;55069;51.568;4.656;2023-08-17T14:55:20;22.21;72.79
68257;DHT22;55069;51.568;4.656;2023-08-17T14:57:46;22.27;72.81
68257;DHT22;55069;51.568;4.656;2023-08-17T15:00:12;22.17;72.83
68257;DHT22;55069;51.568;4.656;2023-08-17T15:02:38;22.14;73.27
68257;DHT22;55069;51.568;4.656;2023-08-17T15:05:04;22.20;73.38
68257;DHT22;55069;51.568;4.656;2023-08-17T15:07:29;22.30;72.95
68257;DHT22;55069;51.568;4.656;2023-08-17T15:09:56;22.32;72.51
68257;DHT22;55069;51.568;4.656;2023-08-17T15:12:21;22.30;72.68
68257;DHT22;55069;51.568;4.656;2023-08-17T15:14:47;22.14;73.16
68257;DHT22;55069;51.568;4.656;2023-08-17T15:17:12;22.07;73.39
68257;DHT22;55069;51.568;4.656;2023-08-17T15:19:38;22.00;73.85
68257;DHT22;55069;51.568;4.656;2023-08-17T15:22:04;22.05;74.00
68257;DHT22;55069;51.568;4.656;2023-08-17T15:24:29;22.07;73.39
68257;DHT22;55069;51.568;4.656;2023-08-17T15:26:55;21.94;73.77
68257;DHT22;55069;51.568;4.656;2023-08-17T15:29:20;21.93;73.95
68257;DHT22;55069;51.568;4.656;2023-08-17T15:31:46;21.84;73.89
68257;DHT22;55069;51.568;4.656;2023-08-17T15:34:11;21.77;74.07
68257;DHT22;55069;51.568;4.656;2023-08-17T15:36:37;21.86;74.17
68257;DHT22;55069;51.568;4.656;2023-08-17T15:39:05;21.97;74.15